sensor_id;sensor_type;location;lat;lon;timestamp;P1;durP1;ratioP1;P2;durP2;ratioP2
26113;SDS011;13966;48.828;9.064;2022-08-11T00:00:59;3.63;;;2.45;;
26113;SDS011;13966;48.828;9.064;2022-08-11T00:03:25;4.75;;;2.47;;
26113;SDS011;13966;48.828;9.064;2022-08-11T00:05:53;4.00;;;2.08;;
26113;SDS011;13966;48.828;9.064;2022-08-11T00:08:21;4.00;;;2.35;;
26113;SDS011;13966;48.828;9.064;2022-08-11T00:10:54;3.80;;;2.20;;
26113;SDS011;13966;48.828;9.064;2022-08-11T00:13:21;2.92;;;1.98;;
26113;SDS011;13966;48.828;9.064;2022-08-11T00:15:47;3.58;;;2.10;;
26113;SDS011;13966;48.828;9.064;2022-08-11T00:18:14;5.47;;;2.30;;
26113;SDS011;13966;48.828;9.064;2022-08-11T00:20:41;4.57;;;2.10;;
26113;SDS011;13966;48.828;9.064;2022-08-11T00:23:10;5.60;;;2.40;;
26113;SDS011;13966;48.828;9.064;2022-08-11T00:25:40;6.00;;;2.47;;
26113;SDS011;13966;48.828;9.064;2022-08-11T00:30:51;3.55;;;2.13;;
26113;SDS011;13966;48.828;9.064;2022-08-11T00:33:18;5.85;;;2.50;;
26113;SDS011;13966;48.828;9.064;2022-08-11T00:35:45;3.70;;;1.88;;
26113;SDS011;13966;48.828;9.064;2022-08-11T00:38:13;3.75;;;2.47;;
26113;SDS011;13966;48.828;9.064;2022-08-11T00:40:54;5.05;;;2.60;;
26113;SDS011;13966;48.828;9.064;2022-08-11T00:43:38;4.85;;;2.17;;
26113;SDS011;13966;48.828;9.064;2022-08-11T00:46:15;3.15;;;2.13;;
26113;SDS011;13966;48.828;9.064;2022-08-11T00:49:01;6.80;;;2.50;;
26113;SDS011;13966;48.828;9.064;2022-08-11T01:01:58;3.88;;;2.58;;
26113;SDS011;13966;48.828;9.064;2022-08-11T01:04:39;7.03;;;2.70;;
26113;SDS011;13966;48.828;9.064;2022-08-11T01:09:46;5.47;;;2.40;;
26113;SDS011;13966;48.828;9.064;2022-08-11T01:25:52;5.00;;;2.50;;
26113;SDS011;13966;48.828;9.064;2022-08-11T01:31:20;2.90;;;2.42;;
26113;SDS011;13966;48.828;9.064;2022-08-11T01:36:49;7.75;;;2.65;;
26113;SDS011;13966;48.828;9.064;2022-08-11T01:41:58;4.07;;;2.40;;
26113;SDS011;13966;48.828;9.064;2022-08-11T01:52:50;6.35;;;2.90;;
26113;SDS011;13966;48.828;9.064;2022-08-11T01:55:31;3.75;;;2.53;;
26113;SDS011;13966;48.828;9.064;2022-08-11T02:00:26;3.97;;;2.40;;
26113;SDS011;13966;48.828;9.064;2022-08-11T02:03:02;4.40;;;2.85;;
26113;SDS011;13966;48.828;9.064;2022-08-11T02:05:46;6.13;;;2.80;;
26113;SDS011;13966;48.828;9.064;2022-08-11T02:10:53;4.53;;;2.80;;
26113;SDS011;13966;48.828;9.064;2022-08-11T02:13:47;6.32;;;2.65;;
26113;SDS011;13966;48.828;9.064;2022-08-11T02:22:30;5.55;;;2.40;;
26113;SDS011;13966;48.828;9.064;2022-08-11T02:27:52;3.85;;;2.35;;
26113;SDS011;13966;48.828;9.064;2022-08-11T02:30:22;4.63;;;2.65;;
26113;SDS011;13966;48.828;9.064;2022-08-11T02:33:11;6.00;;;2.75;;
26113;SDS011;13966;48.828;9.064;2022-08-11T02:35:51;8.43;;;2.47;;
26113;SDS011;13966;48.828;9.064;2022-08-11T02:46:48;3.40;;;2.50;;
26113;SDS011;13966;48.828;9.064;2022-08-11T02:57:50;8.10;;;3.17;;
26113;SDS011;13966;48.828;9.064;2022-08-11T03:00:17;4.88;;;2.60;;
26113;SDS011;13966;48.828;9.064;2022-08-11T03:15:31;9.57;;;3.00;;
26113;SDS011;13966;48.828;9.064;2022-08-11T03:18:27;5.20;;;3.00;;
26113;SDS011;13966;48.828;9.064;2022-08-11T03:21:14;6.22;;;2.70;;
26113;SDS011;13966;48.828;9.064;2022-08-11T03:24:00;5.40;;;3.00;;
26113;SDS011;13966;48.828;9.064;2022-08-11T03:26:53;5.38;;;3.33;;
26113;SDS011;13966;48.828;9.064;2022-08-11T03:29:34;6.47;;;2.90;;
26113;SDS011;13966;48.828;9.064;2022-08-11T03:34:29;6.32;;;3.58;;
26113;SDS011;13966;48.828;9.064;2022-08-11T03:42:40;6.63;;;3.30;;
26113;SDS011;13966;48.828;9.064;2022-08-11T03:58:26;5.03;;;3.03;;
26113;SDS011;13966;48.828;9.064;2022-08-11T04:25:21;32.80;;;5.13;;
26113;SDS011;13966;48.828;9.064;2022-08-11T04:33:48;12.05;;;3.55;;
26113;SDS011;13966;48.828;9.064;2022-08-11T04:36:01;8.18;;;3.55;;
26113;SDS011;13966;48.828;9.064;2022-08-11T04:51:47;6.72;;;3.35;;
26113;SDS011;13966;48.828;9.064;2022-08-11T04:54:55;7.18;;;3.63;;
26113;SDS011;13966;48.828;9.064;2022-08-11T05:00:29;6.03;;;3.63;;
26113;SDS011;13966;48.828;9.064;2022-08-11T05:11:42;6.75;;;3.60;;
26113;SDS011;13966;48.828;9.064;2022-08-11T05:17:11;9.07;;;3.92;;
26113;SDS011;13966;48.828;9.064;2022-08-11T05:19:57;8.93;;;3.80;;
26113;SDS011;13966;48.828;9.064;2022-08-11T05:22:49;6.50;;;3.17;;
26113;SDS011;13966;48.828;9.064;2022-08-11T05:25:33;6.88;;;3.95;;
26113;SDS011;13966;48.828;9.064;2022-08-11T05:28:40;5.38;;;3.53;;
26113;SDS011;13966;48.828;9.064;2022-08-11T05:31:24;7.93;;;3.67;;
26113;SDS011;13966;48.828;9.064;2022-08-11T05:34:11;3.33;;;2.90;;
26113;SDS011;13966;48.828;9.064;2022-08-11T05:36:59;6.15;;;3.65;;
26113;SDS011;13966;48.828;9.064;2022-08-11T05:39:28;7.28;;;3.50;;
26113;SDS011;13966;48.828;9.064;2022-08-11T05:42:15;11.75;;;3.70;;
26113;SDS011;13966;48.828;9.064;2022-08-11T05:45:03;10.73;;;3.20;;
26113;SDS011;13966;48.828;9.064;2022-08-11T05:47:48;6.35;;;3.35;;
26113;SDS011;13966;48.828;9.064;2022-08-11T05:50:33;7.00;;;3.50;;
26113;SDS011;13966;48.828;9.064;2022-08-11T05:53:18;7.03;;;3.40;;
26113;SDS011;13966;48.828;9.064;2022-08-11T05:56:03;4.60;;;3.38;;
26113;SDS011;13966;48.828;9.064;2022-08-11T05:58:48;6.47;;;3.45;;
26113;SDS011;13966;48.828;9.064;2022-08-11T06:01:25;9.88;;;3.47;;
26113;SDS011;13966;48.828;9.064;2022-08-11T06:03:52;8.13;;;3.30;;
26113;SDS011;13966;48.828;9.064;2022-08-11T06:06:38;7.78;;;3.05;;
26113;SDS011;13966;48.828;9.064;2022-08-11T06:09:04;6.10;;;3.00;;
26113;SDS011;13966;48.828;9.064;2022-08-11T06:11:36;6.68;;;3.58;;
26113;SDS011;13966;48.828;9.064;2022-08-11T06:16:28;3.35;;;2.85;;
26113;SDS011;13966;48.828;9.064;2022-08-11T06:18:54;7.05;;;3.10;;
26113;SDS011;13966;48.828;9.064;2022-08-11T06:21:21;11.13;;;3.50;;
26113;SDS011;13966;48.828;9.064;2022-08-11T06:23:47;5.97;;;2.97;;
26113;SDS011;13966;48.828;9.064;2022-08-11T06:26:13;5.82;;;2.78;;
26113;SDS011;13966;48.828;9.064;2022-08-11T06:28:41;3.67;;;2.70;;
26113;SDS011;13966;48.828;9.064;2022-08-11T06:31:20;5.10;;;2.83;;
26113;SDS011;13966;48.828;9.064;2022-08-11T06:36:53;7.57;;;3.22;;
26113;SDS011;13966;48.828;9.064;2022-08-11T06:39:26;5.78;;;3.60;;
26113;SDS011;13966;48.828;9.064;2022-08-11T06:41:59;7.03;;;3.60;;
26113;SDS011;13966;48.828;9.064;2022-08-11T06:44:29;11.18;;;4.70;;
26113;SDS011;13966;48.828;9.064;2022-08-11T06:47:03;7.80;;;4.93;;
26113;SDS011;13966;48.828;9.064;2022-08-11T06:49:32;9.77;;;4.18;;
26113;SDS011;13966;48.828;9.064;2022-08-11T06:52:17;7.65;;;3.92;;
26113;SDS011;13966;48.828;9.064;2022-08-11T06:54:50;9.57;;;4.60;;
26113;SDS011;13966;48.828;9.064;2022-08-11T06:57:29;8.23;;;3.25;;
26113;SDS011;13966;48.828;9.064;2022-08-11T07:00:15;3.53;;;2.30;;
26113;SDS011;13966;48.828;9.064;2022-08-11T07:03:03;6.80;;;2.70;;
26113;SDS011;13966;48.828;9.064;2022-08-11T07:13:53;3.58;;;2.22;;
26113;SDS011;13966;48.828;9.064;2022-08-11T07:16:40;4.35;;;2.50;;
26113;SDS011;13966;48.828;9.064;2022-08-11T07:19:08;5.82;;;2.78;;
26113;SDS011;13966;48.828;9.064;2022-08-11T07:21:54;4.43;;;2.50;;
26113;SDS011;13966;48.828;9.064;2022-08-11T07:24:40;4.47;;;2.47;;
26113;SDS011;13966;48.828;9.064;2022-08-11T07:27:27;3.50;;;2.70;;
26113;SDS011;13966;48.828;9.064;2022-08-11T07:30:12;5.60;;;3.20;;
26113;SDS011;13966;48.828;9.064;2022-08-11T07:32:48;5.93;;;2.58;;
26113;SDS011;13966;48.828;9.064;2022-08-11T07:35:15;3.65;;;2.30;;
26113;SDS011;13966;48.828;9.064;2022-08-11T07:37:43;3.78;;;2.30;;
26113;SDS011;13966;48.828;9.064;2022-08-11T07:40:11;5.10;;;2.60;;
26113;SDS011;13966;48.828;9.064;2022-08-11T07:42:40;4.40;;;2.78;;
26113;SDS011;13966;48.828;9.064;2022-08-11T07:45:10;6.53;;;4.03;;
26113;SDS011;13966;48.828;9.064;2022-08-11T07:47:56;5.55;;;2.50;;
26113;SDS011;13966;48.828;9.064;2022-08-11T07:50:41;7.10;;;3.20;;
26113;SDS011;13966;48.828;9.064;2022-08-11T07:53:27;6.00;;;2.83;;
26113;SDS011;13966;48.828;9.064;2022-08-11T07:55:55;5.70;;;2.60;;
26113;SDS011;13966;48.828;9.064;2022-08-11T07:58:22;3.22;;;2.63;;
26113;SDS011;13966;48.828;9.064;2022-08-11T08:01:07;4.50;;;2.40;;
26113;SDS011;13966;48.828;9.064;2022-08-11T08:03:52;5.25;;;2.30;;
26113;SDS011;13966;48.828;9.064;2022-08-11T08:06:37;6.32;;;2.78;;
26113;SDS011;13966;48.828;9.064;2022-08-11T08:09:23;8.88;;;2.22;;
26113;SDS011;13966;48.828;9.064;2022-08-11T08:12:08;4.32;;;2.55;;
26113;SDS011;13966;48.828;9.064;2022-08-11T08:14:53;3.38;;;2.40;;
26113;SDS011;13966;48.828;9.064;2022-08-11T08:17:39;4.22;;;2.42;;
26113;SDS011;13966;48.828;9.064;2022-08-11T08:20:16;5.40;;;2.30;;
26113;SDS011;13966;48.828;9.064;2022-08-11T08:22:44;4.53;;;2.30;;
26113;SDS011;13966;48.828;9.064;2022-08-11T08:25:10;5.57;;;2.40;;
26113;SDS011;13966;48.828;9.064;2022-08-11T08:27:36;3.83;;;2.40;;
26113;SDS011;13966;48.828;9.064;2022-08-11T08:30:04;4.80;;;2.50;;
26113;SDS011;13966;48.828;9.064;2022-08-11T08:32:48;6.25;;;2.05;;
26113;SDS011;13966;48.828;9.064;2022-08-11T08:35:15;2.65;;;2.13;;
26113;SDS011;13966;48.828;9.064;2022-08-11T08:37:41;5.10;;;2.70;;
26113;SDS011;13966;48.828;9.064;2022-08-11T08:40:08;8.07;;;2.28;;
26113;SDS011;13966;48.828;9.064;2022-08-11T08:42:36;2.97;;;2.00;;
26113;SDS011;13966;48.828;9.064;2022-08-11T08:45:09;3.22;;;1.80;;
26113;SDS011;13966;48.828;9.064;2022-08-11T08:47:42;3.33;;;2.03;;
26113;SDS011;13966;48.828;9.064;2022-08-11T08:50:12;4.18;;;2.20;;
26113;SDS011;13966;48.828;9.064;2022-08-11T08:52:42;4.78;;;2.05;;
26113;SDS011;13966;48.828;9.064;2022-08-11T08:55:11;4.60;;;2.25;;
26113;SDS011;13966;48.828;9.064;2022-08-11T08:57:41;3.08;;;2.20;;
26113;SDS011;13966;48.828;9.064;2022-08-11T09:00:08;4.50;;;2.10;;
26113;SDS011;13966;48.828;9.064;2022-08-11T09:02:35;3.13;;;2.20;;
26113;SDS011;13966;48.828;9.064;2022-08-11T09:05:02;6.45;;;2.08;;
26113;SDS011;13966;48.828;9.064;2022-08-11T09:07:28;4.95;;;1.98;;
26113;SDS011;13966;48.828;9.064;2022-08-11T09:09:56;2.92;;;2.08;;
26113;SDS011;13966;48.828;9.064;2022-08-11T09:12:27;2.22;;;1.85;;
26113;SDS011;13966;48.828;9.064;2022-08-11T09:14:54;3.53;;;1.77;;
26113;SDS011;13966;48.828;9.064;2022-08-11T09:17:28;4.47;;;2.20;;
26113;SDS011;13966;48.828;9.064;2022-08-11T09:19:55;3.28;;;1.95;;
26113;SDS011;13966;48.828;9.064;2022-08-11T09:22:23;7.10;;;2.15;;
26113;SDS011;13966;48.828;9.064;2022-08-11T09:25:07;3.83;;;1.80;;
26113;SDS011;13966;48.828;9.064;2022-08-11T09:27:53;3.15;;;2.00;;
26113;SDS011;13966;48.828;9.064;2022-08-11T09:30:20;5.43;;;1.90;;
26113;SDS011;13966;48.828;9.064;2022-08-11T09:32:49;2.42;;;1.60;;
26113;SDS011;13966;48.828;9.064;2022-08-11T09:35:29;2.53;;;1.85;;
26113;SDS011;13966;48.828;9.064;2022-08-11T09:37:56;3.50;;;1.63;;
26113;SDS011;13966;48.828;9.064;2022-08-11T09:40:42;7.60;;;1.60;;
26113;SDS011;13966;48.828;9.064;2022-08-11T09:43:09;3.80;;;1.52;;
26113;SDS011;13966;48.828;9.064;2022-08-11T09:45:55;3.15;;;1.55;;
26113;SDS011;13966;48.828;9.064;2022-08-11T09:48:23;5.40;;;1.60;;
26113;SDS011;13966;48.828;9.064;2022-08-11T09:50:51;6.85;;;1.92;;
26113;SDS011;13966;48.828;9.064;2022-08-11T09:53:17;2.97;;;1.60;;
26113;SDS011;13966;48.828;9.064;2022-08-11T09:55:44;2.20;;;1.58;;
26113;SDS011;13966;48.828;9.064;2022-08-11T09:58:11;5.80;;;1.77;;
26113;SDS011;13966;48.828;9.064;2022-08-11T10:00:38;2.83;;;1.83;;
26113;SDS011;13966;48.828;9.064;2022-08-11T10:03:22;2.10;;;1.50;;
26113;SDS011;13966;48.828;9.064;2022-08-11T10:05:55;3.38;;;1.60;;
26113;SDS011;13966;48.828;9.064;2022-08-11T10:08:42;5.20;;;1.30;;
26113;SDS011;13966;48.828;9.064;2022-08-11T10:11:08;3.88;;;1.70;;
26113;SDS011;13966;48.828;9.064;2022-08-11T10:13:36;2.13;;;1.35;;
26113;SDS011;13966;48.828;9.064;2022-08-11T10:16:27;4.68;;;1.92;;
26113;SDS011;13966;48.828;9.064;2022-08-11T10:18:54;3.05;;;1.60;;
26113;SDS011;13966;48.828;9.064;2022-08-11T10:21:27;7.13;;;1.73;;
26113;SDS011;13966;48.828;9.064;2022-08-11T10:23:55;3.88;;;1.58;;
26113;SDS011;13966;48.828;9.064;2022-08-11T10:26:42;3.35;;;1.70;;
26113;SDS011;13966;48.828;9.064;2022-08-11T10:29:18;2.28;;;1.63;;
26113;SDS011;13966;48.828;9.064;2022-08-11T10:32:03;3.08;;;1.70;;
26113;SDS011;13966;48.828;9.064;2022-08-11T10:34:49;3.78;;;1.25;;
26113;SDS011;13966;48.828;9.064;2022-08-11T10:37:16;2.88;;;1.10;;
26113;SDS011;13966;48.828;9.064;2022-08-11T10:39:42;3.50;;;1.58;;
26113;SDS011;13966;48.828;9.064;2022-08-11T10:42:09;2.85;;;1.50;;
26113;SDS011;13966;48.828;9.064;2022-08-11T10:44:55;2.65;;;1.40;;
26113;SDS011;13966;48.828;9.064;2022-08-11T10:47:22;3.55;;;1.50;;
26113;SDS011;13966;48.828;9.064;2022-08-11T10:50:09;2.75;;;1.40;;
26113;SDS011;13966;48.828;9.064;2022-08-11T10:52:55;1.65;;;1.20;;
26113;SDS011;13966;48.828;9.064;2022-08-11T10:55:41;4.18;;;1.40;;
26113;SDS011;13966;48.828;9.064;2022-08-11T10:58:26;4.55;;;1.50;;
26113;SDS011;13966;48.828;9.064;2022-08-11T11:01:12;1.80;;;1.38;;
26113;SDS011;13966;48.828;9.064;2022-08-11T11:03:38;3.75;;;1.50;;
26113;SDS011;13966;48.828;9.064;2022-08-11T11:08:32;2.10;;;1.40;;
26113;SDS011;13966;48.828;9.064;2022-08-11T11:11:26;4.47;;;1.40;;
26113;SDS011;13966;48.828;9.064;2022-08-11T11:14:14;3.05;;;1.30;;
26113;SDS011;13966;48.828;9.064;2022-08-11T11:16:59;1.77;;;1.30;;
26113;SDS011;13966;48.828;9.064;2022-08-11T11:19:45;3.22;;;1.40;;
26113;SDS011;13966;48.828;9.064;2022-08-11T11:22:11;3.50;;;1.33;;
26113;SDS011;13966;48.828;9.064;2022-08-11T11:35:16;1.60;;;1.15;;
26113;SDS011;13966;48.828;9.064;2022-08-11T11:37:44;1.83;;;1.40;;
26113;SDS011;13966;48.828;9.064;2022-08-11T11:40:15;2.70;;;1.67;;
26113;SDS011;13966;48.828;9.064;2022-08-11T11:42:46;4.80;;;1.40;;
26113;SDS011;13966;48.828;9.064;2022-08-11T11:45:16;2.33;;;1.15;;
26113;SDS011;13966;48.828;9.064;2022-08-11T11:47:43;4.65;;;1.40;;
26113;SDS011;13966;48.828;9.064;2022-08-11T11:50:09;1.98;;;1.50;;
26113;SDS011;13966;48.828;9.064;2022-08-11T11:52:37;5.85;;;1.52;;
26113;SDS011;13966;48.828;9.064;2022-08-11T11:55:04;4.55;;;1.52;;
26113;SDS011;13966;48.828;9.064;2022-08-11T11:57:30;5.22;;;1.42;;
26113;SDS011;13966;48.828;9.064;2022-08-11T12:00:16;3.45;;;1.55;;
26113;SDS011;13966;48.828;9.064;2022-08-11T12:03:03;1.95;;;1.00;;
26113;SDS011;13966;48.828;9.064;2022-08-11T12:05:30;4.05;;;1.10;;
26113;SDS011;13966;48.828;9.064;2022-08-11T12:07:59;2.22;;;1.17;;
26113;SDS011;13966;48.828;9.064;2022-08-11T12:10:43;1.30;;;1.17;;
26113;SDS011;13966;48.828;9.064;2022-08-11T12:13:10;2.63;;;1.00;;
26113;SDS011;13966;48.828;9.064;2022-08-11T12:15:54;1.58;;;0.90;;
26113;SDS011;13966;48.828;9.064;2022-08-11T12:18:28;1.65;;;1.00;;
26113;SDS011;13966;48.828;9.064;2022-08-11T12:20:56;3.90;;;1.00;;
26113;SDS011;13966;48.828;9.064;2022-08-11T12:23:22;1.48;;;0.95;;
26113;SDS011;13966;48.828;9.064;2022-08-11T12:26:06;1.55;;;0.80;;
26113;SDS011;13966;48.828;9.064;2022-08-11T12:28:51;2.30;;;1.00;;
26113;SDS011;13966;48.828;9.064;2022-08-11T12:31:17;0.95;;;0.70;;
26113;SDS011;13966;48.828;9.064;2022-08-11T12:33:45;1.85;;;0.93;;
26113;SDS011;13966;48.828;9.064;2022-08-11T12:36:12;2.53;;;0.80;;
26113;SDS011;13966;48.828;9.064;2022-08-11T12:38:40;2.88;;;0.88;;
26113;SDS011;13966;48.828;9.064;2022-08-11T12:41:07;4.05;;;0.80;;
26113;SDS011;13966;48.828;9.064;2022-08-11T12:43:52;1.33;;;0.75;;
26113;SDS011;13966;48.828;9.064;2022-08-11T12:46:37;0.75;;;0.70;;
26113;SDS011;13966;48.828;9.064;2022-08-11T12:49:13;0.82;;;0.60;;
26113;SDS011;13966;48.828;9.064;2022-08-11T12:52:01;3.05;;;1.00;;
26113;SDS011;13966;48.828;9.064;2022-08-11T12:57:08;1.10;;;0.70;;
26113;SDS011;13966;48.828;9.064;2022-08-11T12:59:55;0.85;;;0.60;;
26113;SDS011;13966;48.828;9.064;2022-08-11T13:02:40;2.05;;;0.70;;
26113;SDS011;13966;48.828;9.064;2022-08-11T13:05:25;2.08;;;0.75;;
26113;SDS011;13966;48.828;9.064;2022-08-11T13:07:51;4.03;;;0.75;;
26113;SDS011;13966;48.828;9.064;2022-08-11T13:10:18;6.20;;;0.90;;
26113;SDS011;13966;48.828;9.064;2022-08-11T13:13:05;1.42;;;0.73;;
26113;SDS011;13966;48.828;9.064;2022-08-11T13:15:32;0.55;;;0.50;;
26113;SDS011;13966;48.828;9.064;2022-08-11T13:18:00;1.52;;;0.80;;
26113;SDS011;13966;48.828;9.064;2022-08-11T13:20:26;3.70;;;0.70;;
26113;SDS011;13966;48.828;9.064;2022-08-11T13:22:53;5.18;;;0.70;;
26113;SDS011;13966;48.828;9.064;2022-08-11T13:25:21;2.40;;;0.60;;
26113;SDS011;13966;48.828;9.064;2022-08-11T13:27:48;1.33;;;0.70;;
26113;SDS011;13966;48.828;9.064;2022-08-11T13:30:15;1.30;;;0.65;;
26113;SDS011;13966;48.828;9.064;2022-08-11T13:33:01;2.47;;;0.80;;
26113;SDS011;13966;48.828;9.064;2022-08-11T13:35:28;2.20;;;0.85;;
26113;SDS011;13966;48.828;9.064;2022-08-11T13:37:55;1.48;;;0.57;;
26113;SDS011;13966;48.828;9.064;2022-08-11T13:40:22;1.50;;;0.77;;
26113;SDS011;13966;48.828;9.064;2022-08-11T13:42:49;1.20;;;0.70;;
26113;SDS011;13966;48.828;9.064;2022-08-11T13:45:16;3.30;;;0.73;;
26113;SDS011;13966;48.828;9.064;2022-08-11T13:47:42;0.82;;;0.60;;
26113;SDS011;13966;48.828;9.064;2022-08-11T13:50:08;2.45;;;0.80;;
26113;SDS011;13966;48.828;9.064;2022-08-11T13:52:37;1.87;;;0.70;;
26113;SDS011;13966;48.828;9.064;2022-08-11T13:55:04;0.73;;;0.70;;
26113;SDS011;13966;48.828;9.064;2022-08-11T13:57:31;2.05;;;0.57;;
26113;SDS011;13966;48.828;9.064;2022-08-11T13:59:58;1.65;;;0.50;;
26113;SDS011;13966;48.828;9.064;2022-08-11T14:02:34;1.25;;;0.50;;
26113;SDS011;13966;48.828;9.064;2022-08-11T14:05:02;1.27;;;0.50;;
26113;SDS011;13966;48.828;9.064;2022-08-11T14:07:33;1.15;;;0.60;;
26113;SDS011;13966;48.828;9.064;2022-08-11T14:10:00;3.13;;;0.82;;
26113;SDS011;13966;48.828;9.064;2022-08-11T14:12:29;2.28;;;0.80;;
26113;SDS011;13966;48.828;9.064;2022-08-11T14:15:19;0.57;;;0.50;;
26113;SDS011;13966;48.828;9.064;2022-08-11T14:17:55;0.77;;;0.60;;
26113;SDS011;13966;48.828;9.064;2022-08-11T14:20:25;2.63;;;0.82;;
26113;SDS011;13966;48.828;9.064;2022-08-11T14:23:13;2.67;;;0.80;;
26113;SDS011;13966;48.828;9.064;2022-08-11T14:25:39;1.80;;;0.50;;
26113;SDS011;13966;48.828;9.064;2022-08-11T14:28:25;1.10;;;0.60;;
26113;SDS011;13966;48.828;9.064;2022-08-11T14:30:52;1.95;;;1.00;;
26113;SDS011;13966;48.828;9.064;2022-08-11T14:33:21;1.13;;;0.60;;
26113;SDS011;13966;48.828;9.064;2022-08-11T14:35:47;1.83;;;0.70;;
26113;SDS011;13966;48.828;9.064;2022-08-11T14:38:13;1.17;;;0.60;;
26113;SDS011;13966;48.828;9.064;2022-08-11T14:40:41;0.88;;;0.50;;
26113;SDS011;13966;48.828;9.064;2022-08-11T14:43:26;1.15;;;0.80;;
26113;SDS011;13966;48.828;9.064;2022-08-11T14:46:11;2.17;;;0.65;;
26113;SDS011;13966;48.828;9.064;2022-08-11T14:48:57;1.15;;;0.60;;
26113;SDS011;13966;48.828;9.064;2022-08-11T14:51:23;0.98;;;0.63;;
26113;SDS011;13966;48.828;9.064;2022-08-11T14:53:51;2.45;;;0.70;;
26113;SDS011;13966;48.828;9.064;2022-08-11T14:56:37;1.55;;;0.77;;
26113;SDS011;13966;48.828;9.064;2022-08-11T14:59:04;3.25;;;0.80;;
26113;SDS011;13966;48.828;9.064;2022-08-11T15:01:31;0.77;;;0.70;;
26113;SDS011;13966;48.828;9.064;2022-08-11T15:04:16;4.20;;;0.80;;
26113;SDS011;13966;48.828;9.064;2022-08-11T15:06:43;0.70;;;0.70;;
26113;SDS011;13966;48.828;9.064;2022-08-11T15:09:10;2.83;;;0.80;;
26113;SDS011;13966;48.828;9.064;2022-08-11T15:11:36;2.78;;;0.65;;
26113;SDS011;13966;48.828;9.064;2022-08-11T15:14:20;3.45;;;0.80;;
26113;SDS011;13966;48.828;9.064;2022-08-11T15:17:05;1.58;;;0.82;;
26113;SDS011;13966;48.828;9.064;2022-08-11T15:19:32;1.25;;;0.60;;
26113;SDS011;13966;48.828;9.064;2022-08-11T15:21:59;0.70;;;0.70;;
26113;SDS011;13966;48.828;9.064;2022-08-11T15:24:44;0.70;;;0.68;;
26113;SDS011;13966;48.828;9.064;2022-08-11T15:27:15;3.45;;;0.80;;
26113;SDS011;13966;48.828;9.064;2022-08-11T15:30:00;3.65;;;1.00;;
26113;SDS011;13966;48.828;9.064;2022-08-11T15:32:45;2.55;;;0.85;;
26113;SDS011;13966;48.828;9.064;2022-08-11T15:35:30;2.25;;;0.73;;
26113;SDS011;13966;48.828;9.064;2022-08-11T15:38:16;3.38;;;0.80;;
26113;SDS011;13966;48.828;9.064;2022-08-11T15:40:44;5.25;;;1.05;;
26113;SDS011;13966;48.828;9.064;2022-08-11T15:43:30;1.67;;;0.80;;
26113;SDS011;13966;48.828;9.064;2022-08-11T15:46:17;1.27;;;0.90;;
26113;SDS011;13966;48.828;9.064;2022-08-11T15:48:50;4.22;;;1.00;;
26113;SDS011;13966;48.828;9.064;2022-08-11T15:53:48;0.82;;;0.70;;
26113;SDS011;13966;48.828;9.064;2022-08-11T15:56:15;1.45;;;1.10;;
26113;SDS011;13966;48.828;9.064;2022-08-11T15:58:46;1.95;;;0.80;;
26113;SDS011;13966;48.828;9.064;2022-08-11T16:01:30;2.58;;;1.00;;
26113;SDS011;13966;48.828;9.064;2022-08-11T16:04:17;3.45;;;1.10;;
26113;SDS011;13966;48.828;9.064;2022-08-11T16:06:48;3.92;;;1.00;;
26113;SDS011;13966;48.828;9.064;2022-08-11T16:09:22;1.27;;;1.00;;
26113;SDS011;13966;48.828;9.064;2022-08-11T16:11:49;2.05;;;0.82;;
26113;SDS011;13966;48.828;9.064;2022-08-11T16:14:16;2.35;;;1.10;;
26113;SDS011;13966;48.828;9.064;2022-08-11T16:17:02;2.05;;;1.33;;
26113;SDS011;13966;48.828;9.064;2022-08-11T16:19:29;1.30;;;1.10;;
26113;SDS011;13966;48.828;9.064;2022-08-11T16:21:58;5.23;;;1.20;;
26113;SDS011;13966;48.828;9.064;2022-08-11T16:24:24;2.05;;;1.10;;
26113;SDS011;13966;48.828;9.064;2022-08-11T16:26:50;6.57;;;1.50;;
26113;SDS011;13966;48.828;9.064;2022-08-11T16:29:19;3.75;;;1.00;;
26113;SDS011;13966;48.828;9.064;2022-08-11T16:31:46;3.80;;;0.90;;
26113;SDS011;13966;48.828;9.064;2022-08-11T16:34:32;1.35;;;1.13;;
26113;SDS011;13966;48.828;9.064;2022-08-11T16:37:18;2.45;;;1.00;;
26113;SDS011;13966;48.828;9.064;2022-08-11T16:40:04;2.05;;;1.10;;
26113;SDS011;13966;48.828;9.064;2022-08-11T16:42:30;3.22;;;1.55;;
26113;SDS011;13966;48.828;9.064;2022-08-11T16:45:15;2.17;;;1.30;;
26113;SDS011;13966;48.828;9.064;2022-08-11T16:48:00;2.08;;;1.30;;
26113;SDS011;13966;48.828;9.064;2022-08-11T16:50:27;3.08;;;1.40;;
26113;SDS011;13966;48.828;9.064;2022-08-11T16:52:54;3.65;;;1.48;;
26113;SDS011;13966;48.828;9.064;2022-08-11T16:55:20;3.78;;;1.13;;
26113;SDS011;13966;48.828;9.064;2022-08-11T16:57:46;3.95;;;1.48;;
26113;SDS011;13966;48.828;9.064;2022-08-11T17:00:31;1.38;;;1.20;;
26113;SDS011;13966;48.828;9.064;2022-08-11T17:02:57;1.60;;;1.15;;
26113;SDS011;13966;48.828;9.064;2022-08-11T17:05:45;3.65;;;1.40;;
26113;SDS011;13966;48.828;9.064;2022-08-11T17:08:43;1.67;;;1.20;;
26113;SDS011;13966;48.828;9.064;2022-08-11T17:11:30;3.30;;;1.30;;
26113;SDS011;13966;48.828;9.064;2022-08-11T17:14:19;3.33;;;1.20;;
26113;SDS011;13966;48.828;9.064;2022-08-11T17:16:46;2.67;;;1.27;;
26113;SDS011;13966;48.828;9.064;2022-08-11T17:19:26;4.10;;;1.48;;
26113;SDS011;13966;48.828;9.064;2022-08-11T17:21:53;2.72;;;1.35;;
26113;SDS011;13966;48.828;9.064;2022-08-11T17:24:40;4.53;;;1.20;;
26113;SDS011;13966;48.828;9.064;2022-08-11T17:27:07;1.75;;;1.63;;
26113;SDS011;13966;48.828;9.064;2022-08-11T17:29:35;2.65;;;1.42;;
26113;SDS011;13966;48.828;9.064;2022-08-11T17:32:03;2.30;;;1.20;;
26113;SDS011;13966;48.828;9.064;2022-08-11T17:34:48;2.10;;;1.25;;
26113;SDS011;13966;48.828;9.064;2022-08-11T17:37:34;7.57;;;1.50;;
26113;SDS011;13966;48.828;9.064;2022-08-11T17:40:03;5.07;;;1.50;;
26113;SDS011;13966;48.828;9.064;2022-08-11T17:42:29;2.95;;;1.23;;
26113;SDS011;13966;48.828;9.064;2022-08-11T17:45:16;2.45;;;1.50;;
26113;SDS011;13966;48.828;9.064;2022-08-11T17:48:02;3.05;;;1.40;;
26113;SDS011;13966;48.828;9.064;2022-08-11T17:50:48;3.45;;;1.38;;
26113;SDS011;13966;48.828;9.064;2022-08-11T17:53:14;1.20;;;1.10;;
26113;SDS011;13966;48.828;9.064;2022-08-11T17:56:00;5.28;;;1.33;;
26113;SDS011;13966;48.828;9.064;2022-08-11T17:58:45;3.30;;;1.20;;
26113;SDS011;13966;48.828;9.064;2022-08-11T18:01:31;6.50;;;1.50;;
26113;SDS011;13966;48.828;9.064;2022-08-11T18:04:01;4.97;;;1.55;;
26113;SDS011;13966;48.828;9.064;2022-08-11T18:06:27;2.47;;;1.60;;
26113;SDS011;13966;48.828;9.064;2022-08-11T18:08:54;3.97;;;1.60;;
26113;SDS011;13966;48.828;9.064;2022-08-11T18:11:40;2.30;;;1.60;;
26113;SDS011;13966;48.828;9.064;2022-08-11T18:14:25;2.60;;;1.67;;
26113;SDS011;13966;48.828;9.064;2022-08-11T18:17:10;4.25;;;1.50;;
26113;SDS011;13966;48.828;9.064;2022-08-11T18:19:54;2.42;;;1.35;;
26113;SDS011;13966;48.828;9.064;2022-08-11T18:22:40;4.18;;;1.50;;
26113;SDS011;13966;48.828;9.064;2022-08-11T18:25:26;1.45;;;1.33;;
26113;SDS011;13966;48.828;9.064;2022-08-11T18:28:15;4.25;;;1.70;;
26113;SDS011;13966;48.828;9.064;2022-08-11T18:31:01;2.90;;;1.50;;
26113;SDS011;13966;48.828;9.064;2022-08-11T18:36:35;2.05;;;1.80;;
26113;SDS011;13966;48.828;9.064;2022-08-11T18:39:21;9.38;;;1.70;;
26113;SDS011;13966;48.828;9.064;2022-08-11T18:42:09;2.30;;;1.60;;
26113;SDS011;13966;48.828;9.064;2022-08-11T18:44:57;4.57;;;1.45;;
26113;SDS011;13966;48.828;9.064;2022-08-11T18:47:43;4.55;;;1.50;;
26113;SDS011;13966;48.828;9.064;2022-08-11T18:50:29;2.45;;;1.48;;
26113;SDS011;13966;48.828;9.064;2022-08-11T18:53:13;2.80;;;1.60;;
26113;SDS011;13966;48.828;9.064;2022-08-11T18:55:58;7.78;;;1.73;;
26113;SDS011;13966;48.828;9.064;2022-08-11T18:58:44;7.20;;;1.48;;
26113;SDS011;13966;48.828;9.064;2022-08-11T19:01:30;11.05;;;1.85;;